• Join FlightAware (Why Join?)
  • Login
  • US Flag 
09:05PM EDT


 

Airport Tracker/Info


-or-


 

Live Flight TrackerFlight Track Log ✈ AFL150 ✈ 19-Aug-2013 ✈ UUEE / SVO - MUHA / HAV

Flight Track Log - Related Links

Times and Time Zones

All times are in EDT time to prevent confusion due to time zone crossing. See the AFL150 flight status page for this flight to view local times or setup timezone preferences in your user account.

Time Position Orientation Groundspeed Altitude Reporting Facility
EDT Latitude Longitude Course Direction KTS MPH feet Rate Location/Type
06:29AM 55.9790 37.4660 74° East 188 216 1,400  Level FlightAware
06:29AM 55.9840 37.4950 73° East 180 207 2,300 1,800 Climbing FlightAware
06:30AM 55.9880 37.5260 77° East 198 228 2,600 900 Climbing FlightAware
06:30AM 55.9930 37.5590 75° East 222 255 2,900 1,020 Climbing FlightAware
06:30AM 56.0000 37.6060 75° East 247 284 3,400 1,200 Climbing FlightAware
06:31AM 56.0040 37.6370 77° East 263 303 3,700 1,860 Climbing FlightAware
06:31AM 56.0100 37.6790 76° East 267 307 4,500 2,220 Climbing FlightAware
06:31AM 56.0150 37.7110 74° East 274 315 5,000 2,100 Climbing FlightAware
06:31AM 56.0190 37.7220 57° Northeast 275 316 5,200 2,400 Climbing FlightAware
06:31AM 56.0230 37.7300 48° Northeast 275 316 5,400 2,400 Climbing FlightAware
06:31AM 56.0330 37.7450 40° Northeast 277 319 5,800 2,400 Climbing FlightAware
06:32AM 56.0370 37.7480 23° Northeast 279 321 6,000 2,400 Climbing FlightAware
06:32AM 56.0510 37.7540 13° North 282 325 6,400 2,400 Climbing FlightAware
06:32AM 56.0760 37.7410 344° North 282 325 7,200 2,400 Climbing FlightAware
06:32AM 56.0860 37.7260 320° Northwest 283 326 7,600 2,400 Climbing FlightAware
06:32AM 56.0930 37.7070 303° West 283 326 8,000 2,400 Climbing FlightAware
06:33AM 56.0970 37.6850 288° West 284 327 8,400 2,580 Climbing FlightAware
06:33AM 56.1050 37.6420 288° West 284 327 9,300 2,400 Climbing FlightAware
06:33AM 56.1170 37.5720 287° West 292 336 10,400 1,440 Climbing FlightAware
06:34AM 56.1340 37.4730 287° West 333 383 11,000 840 Climbing FlightAware
06:35AM 56.1510 37.3750 287° West 366 421 11,500 1,440 Climbing FlightAware
06:35AM 56.1710 37.2560 287° West 380 437 12,800 1,980 Climbing FlightAware
06:36AM 56.1880 37.1480 286° West 386 444 14,000 2,040 Climbing FlightAware
06:36AM 56.2050 37.0400 286° West 395 455 15,200 1,860 Climbing FlightAware
06:37AM 56.2230 36.9280 286° West 405 466 16,200 1,800 Climbing FlightAware
06:38AM 56.2410 36.8130 286° West 413 475 17,300 1,860 Climbing FlightAware
06:38AM 56.2580 36.7010 285° West 416 479 18,400 1,680 Climbing FlightAware
06:39AM 56.2770 36.5790 286° West 426 490 19,300 1,440 Climbing FlightAware
06:39AM 56.2950 36.4600 285° West 436 502 20,100 1,440 Climbing FlightAware
06:40AM 56.3140 36.3360 285° West 444 511 21,000 1,440 Climbing FlightAware
06:41AM 56.3330 36.2100 285° West 450 518 21,800 1,500 Climbing FlightAware
06:41AM 56.3580 36.0450 285° West 455 524 23,000 1,560 Climbing FlightAware
06:42AM 56.3740 35.9350 285° West 456 525 23,800 1,440 Climbing FlightAware
06:42AM 56.3930 35.8060 285° West 460 529 24,600 1,260 Climbing FlightAware
06:43AM 56.4120 35.6750 285° West 465 535 25,300 1,200 Climbing FlightAware
06:44AM 56.4320 35.5440 285° West 469 540 26,000 1,080 Climbing FlightAware
06:44AM 56.4520 35.4120 285° West 473 544 26,600 1,020 Climbing FlightAware
06:45AM 56.4850 35.2860 295° West 478 550 27,200 960 Climbing FlightAware
06:45AM 56.5360 35.1620 307° West 482 555 27,800 960 Climbing FlightAware
06:46AM 56.5970 35.0660 319° Northwest 484 557 28,400 900 Climbing FlightAware
06:46AM 56.6540 35.0050 330° Northwest 486 559 28,800 960 Climbing FlightAware
06:47AM 56.7290 34.9580 341° North 482 555 29,500 1,320 Climbing FlightAware
06:48AM 56.8160 34.9400 354° North 472 543 30,500 1,560 Climbing FlightAware
06:48AM 56.8600 34.9420 North 467 537 31,100 1,380 Climbing FlightAware
06:49AM 56.9340 34.9480 North 462 532 31,800 1,200 Climbing FlightAware
06:49AM 57.0190 34.9510 North 456 525 32,600 1,200 Climbing FlightAware
06:50AM 57.0920 34.9540 North 452 520 33,300 900 Climbing FlightAware
06:50AM 57.1640 34.9560 North 453 521 33,700 600 Climbing FlightAware
06:51AM 57.2380 34.9580 North 454 522 34,000 240 Climbing FlightAware
06:52AM 57.3120 34.9600 North 456 525 34,000  Level FlightAware
06:52AM 57.3840 34.9620 North 454 522 34,000  Level FlightAware
06:53AM 57.4580 34.9640 North 456 525 34,000  Level FlightAware
06:53AM 57.5320 34.9670 North 455 524 34,000  Level FlightAware
06:54AM 57.5740 34.9630 357° North 455 524 34,000  Level FlightAware
06:54AM 57.6470 34.9430 352° North 454 522 34,000  Level FlightAware
06:55AM 57.7170 34.9070 345° North 454 522 34,000  Level FlightAware
06:56AM 57.7940 34.8450 337° Northwest 456 525 34,000  Level FlightAware
06:56AM 57.8490 34.7860 330° Northwest 456 525 34,000  Level FlightAware
06:57AM 57.9090 34.7040 324° Northwest 457 526 34,000  Level FlightAware
06:57AM 57.9680 34.6210 323° Northwest 457 526 34,000  Level FlightAware
06:58AM 58.0280 34.5360 323° Northwest 456 525 34,000  Level FlightAware
06:58AM 58.0850 34.4560 323° Northwest 456 525 34,000  Level FlightAware
06:59AM 58.1450 34.3720 324° Northwest 455 524 34,000  Level FlightAware
07:00AM 58.2030 34.2870 322° Northwest 455 524 34,000  Level FlightAware
07:00AM 58.2560 34.2040 321° Northwest 454 522 34,000  Level FlightAware
07:01AM 58.3160 34.1120 321° Northwest 455 524 34,000  Level FlightAware
07:01AM 58.3710 34.0280 321° Northwest 456 525 34,000  Level FlightAware
07:02AM 58.4450 33.9140 321° Northwest 456 525 34,000  Level FlightAware
07:03AM 58.4950 33.8360 321° Northwest 456 525 34,000  Level FlightAware
07:03AM 58.5450 33.7580 321° Northwest 456 525 34,000  Level FlightAware
07:04AM 58.5960 33.6800 321° Northwest 456 525 34,000  Level FlightAware
07:04AM 58.6460 33.6020 321° Northwest 456 525 34,000  Level FlightAware
07:05AM 58.6960 33.5240 321° Northwest 456 525 34,000  Level FlightAware
07:06AM 58.7630 33.4190 321° Northwest 456 525 34,000  Level FlightAware
07:06AM 58.8140 33.3390 321° Northwest 456 525 34,000  Level FlightAware
07:07AM 58.8640 33.2600 321° Northwest 456 525 34,000  Level FlightAware
07:07AM 58.9110 33.0020 290° West 34,000  Level FlightAware
07:08AM 58.9380 32.8580 290° West 461 531 34,000  Level FlightAware
07:09AM 58.9600 32.7400 290° West 461 531 34,000  Level FlightAware
07:09AM 58.9830 32.6210 291° West 461 531 34,000  Level FlightAware
07:10AM 59.0050 32.5010 290° West 461 531 34,000  Level FlightAware
07:10AM 59.0270 32.3820 290° West 461 531 34,000  Level FlightAware
07:11AM 59.0500 32.2630 291° West 461 531 34,000  Level FlightAware
07:12AM 59.0730 32.1370 290° West 461 531 34,000  Level FlightAware
07:12AM 59.1200 31.8410 287° West 464 534 34,000  Level FlightAware
07:13AM 59.1430 31.7080 289° West 464 534 34,000  Level FlightAware
07:13AM 59.1720 31.5450 289° West 463 533 34,000  Level FlightAware
07:14AM 59.1920 31.4250 288° West 462 532 34,000  Level FlightAware
07:15AM 59.2150 31.2900 288° West 461 531 34,000  Level FlightAware
07:15AM 59.2420 31.1290 288° West 461 531 34,000  Level FlightAware
07:16AM 59.2690 30.9720 289° West 462 532 34,000  Level FlightAware
07:16AM 59.2910 30.8360 288° West 464 534 34,000  Level FlightAware
07:17AM 59.3200 30.6600 288° West 464 534 34,000  Level FlightAware
07:18AM 59.3390 30.5420 288° West 464 534 34,000  Level FlightAware
07:18AM 59.3650 30.3850 288° West 466 536 34,000  Level FlightAware
07:19AM 59.3890 30.2370 288° West 466 536 34,000  Level FlightAware
07:20AM 59.4110 30.0970 287° West 466 536 34,000  Level FlightAware
07:20AM 59.4320 29.9640 287° West 466 536 34,000  Level FlightAware
07:21AM 59.4540 29.8250 287° West 467 537 34,000  Level FlightAware
07:21AM 59.4750 29.6890 287° West 469 540 34,000  Level FlightAware
07:22AM 59.4960 29.5500 287° West 469 540 34,000  Level FlightAware
07:22AM 59.5200 29.3930 287° West 468 539 34,000  Level FlightAware
07:23AM 59.5410 29.2530 287° West 468 539 34,000  Level FlightAware
07:24AM 59.5630 29.1080 287° West 467 537 34,000  Level FlightAware
07:24AM 59.5860 28.9590 287° West 467 537 34,000  Level FlightAware
07:25AM 59.6050 28.8250 286° West 467 537 34,000  Level FlightAware
07:25AM 59.6260 28.6830 286° West 467 537 34,000  Level FlightAware
07:26AM 59.6490 28.5300 287° West 469 540 34,000  Level FlightAware
07:27AM 59.6700 28.3820 286° West 466 536 34,000  Level FlightAware
07:27AM 59.6880 28.2570 286° West 464 534 34,000  Level FlightAware
07:28AM 59.7100 28.1050 286° West 465 535 34,000  Level FlightAware
07:28AM 59.7300 27.9590 285° West 466 536 34,000  Level FlightAware
07:29AM 59.7510 27.8130 286° West 465 535 34,000  Level FlightAware
07:29AM 59.7690 27.6810 285° West 465 535 34,000  Level FlightAware
07:30AM 59.7890 27.5360 285° West 465 535 34,000  Level FlightAware
07:31AM 59.8090 27.3860 285° West 465 535 34,000  Level FlightAware
07:31AM 59.8300 27.2330 285° West 464 534 34,000  Level FlightAware
07:32AM 59.8470 27.1090 285° West 464 534 34,000  Level FlightAware
07:32AM 59.8670 26.9580 285° West 462 532 34,000  Level FlightAware
07:33AM 59.8870 26.8050 285° West 460 529 34,000  Level FlightAware
07:33AM 59.9030 26.6810 284° West 459 528 34,000  Level FlightAware
07:34AM 59.9220 26.5300 284° West 458 527 34,000  Level FlightAware
07:35AM 59.9450 26.3820 287° West 460 529 34,000  Level FlightAware
07:35AM 59.9710 26.2630 294° West 465 535 34,000  Level FlightAware
07:36AM 60.0140 26.1100 299° West 471 542 34,000  Level FlightAware
07:36AM 60.0440 25.9890 296° West 466 536 34,000  Level FlightAware
07:37AM 60.0780 25.8490 296° West 465 535 34,000  Level FlightAware
07:38AM 60.1120 25.7100 296° West 463 533 34,000  Level FlightAware
07:38AM 60.1460 25.5680 296° West 465 535 34,000  Level FlightAware
07:39AM 60.1760 25.4430 296° West 466 536 34,000  Level FlightAware
07:39AM 60.2090 25.3050 296° West 466 536 34,000  Level FlightAware
07:40AM 60.2400 25.1780 296° West 466 536 34,000  Level FlightAware
07:41AM 60.2760 25.0260 296° West 467 537 34,000  Level FlightAware
07:41AM 60.3090 24.8910 296° West 468 539 34,000  Level FlightAware
07:42AM 60.3390 24.7630 295° West 468 539 34,000  Level FlightAware
07:42AM 60.3720 24.6190 295° West 467 537 34,000  Level FlightAware
07:43AM 60.4060 24.4750 296° West 467 537 34,000  Level FlightAware
07:43AM 60.4340 24.3530 295° West 465 535 34,000  Level FlightAware
07:44AM 60.4700 24.2020 296° West 466 536 34,000  Level FlightAware
07:45AM 60.5040 24.0750 299° West 466 536 34,000  Level FlightAware
07:45AM 60.5380 23.9460 298° West 467 537 34,000  Level FlightAware
07:46AM 60.5780 23.7970 299° West 467 537 34,000  Level FlightAware
07:46AM 60.6120 23.6680 298° West 467 537 34,000  Level FlightAware
07:47AM 60.6480 23.5280 298° West 466 536 34,000  Level FlightAware
07:48AM 60.6780 23.4100 297° West 465 535 34,000  Level FlightAware
07:48AM 60.7240 23.2330 298° West 462 532 34,000  Level FlightAware
07:49AM 60.7570 23.1040 298° West 461 531 34,000  Level FlightAware
07:49AM 60.7880 22.9820 298° West 461 531 34,000  Level FlightAware
07:50AM 60.8140 22.8780 297° West 462 532 34,000  Level FlightAware
07:50AM 60.8530 22.7240 298° West 462 532 34,000  Level FlightAware
07:51AM 60.8860 22.5900 297° West 462 532 34,000  Level FlightAware
07:52AM 60.9240 22.4370 297° West 463 533 34,000  Level FlightAware
07:52AM 60.9590 22.2990 298° West 466 536 34,000  Level FlightAware
07:53AM 61.0030 22.1530 302° West 467 537 34,000  Level FlightAware
07:53AM 61.0440 22.0250 304° West 466 536 34,000  Level FlightAware
07:54AM 61.0850 21.8910 302° West 465 535 34,000  Level FlightAware
07:55AM 61.1240 21.7610 302° West 465 535 34,000  Level FlightAware
07:55AM 61.1630 21.6310 302° West 466 536 34,000  Level FlightAware
07:56AM 61.2030 21.4980 302° West 467 537 34,000  Level FlightAware
07:56AM 61.2400 21.3740 302° West 469 540 34,000  Level FlightAware
07:57AM 61.2820 21.2310 301° West 469 540 34,000  Level FlightAware
07:58AM 61.3220 21.0960 302° West 469 540 34,000  Level FlightAware
07:58AM 61.3620 20.9570 301° West 468 539 34,000  Level FlightAware
07:59AM 61.4000 20.8280 302° West 468 539 34,000  Level FlightAware
07:59AM 61.4360 20.7030 301° West 467 537 34,000  Level FlightAware
08:00AM 61.4810 20.5460 301° West 465 535 34,000  Level FlightAware
08:00AM 61.5160 20.4220 301° West 464 534 34,000  Level FlightAware
08:01AM 61.5510 20.2990 301° West 464 534 34,000  Level FlightAware
08:02AM 61.5920 20.1520 300° West 466 536 34,000  Level FlightAware
08:02AM 61.6290 20.0220 301° West 467 537 34,000  Level FlightAware
08:03AM 61.6690 19.8790 301° West 466 536 34,000  Level FlightAware
08:03AM 61.7050 19.7490 300° West 466 536 34,000  Level FlightAware
08:04AM 61.7450 19.6050 300° West 466 536 34,000  Level FlightAware
08:05AM 61.7780 19.4820 300° West 465 535 34,000  Level FlightAware
08:05AM 61.8160 19.3260 297° West 453 521 34,000  Level FlightAware
08:06AM 61.8480 19.1930 297° West 453 521 34,000  Level FlightAware
08:06AM 61.8760 19.0790 298° West 452 520 34,000  Level FlightAware
08:07AM 61.9140 18.9200 297° West 446 513 34,000  Level FlightAware
08:07AM 61.9430 18.8010 297° West 445 512 34,000  Level FlightAware
08:08AM 61.9800 18.6450 297° West 444 511 34,000  Level FlightAware
08:09AM 62.0130 18.5060 297° West 443 510 34,000  Level FlightAware
08:09AM 62.0450 18.3710 297° West 442 509 34,000  Level FlightAware
08:10AM 62.0780 18.2330 297° West 442 509 34,000  Level FlightAware
08:10AM 62.1090 18.0990 296° West 442 509 34,000  Level FlightAware
08:11AM 62.1420 17.9570 296° West 446 513 34,000  Level FlightAware
08:12AM 62.1860 17.7650 296° West 445 512 34,000  Level FlightAware
08:12AM 62.2200 17.6170 296° West 446 513 34,000  Level FlightAware
08:13AM 62.2510 17.4810 296° West 446 513 34,000  Level FlightAware
08:14AM 62.2830 17.3400 296° West 445 512 34,000  Level FlightAware
08:14AM 62.3130 17.2080 296° West 444 511 34,000  Level FlightAware
08:15AM 62.3400 17.0860 296° West 445 512 34,000  Level FlightAware
08:15AM 62.3740 16.9290 295° West 446 513 34,000  Level FlightAware
08:16AM 62.4010 16.8080 296° West 448 516 34,000  Level FlightAware
08:16AM 62.4360 16.6470 295° West 449 517 34,000  Level FlightAware
08:17AM 62.4630 16.5230 295° West 452 520 34,000  Level FlightAware
08:18AM 62.4980 16.3610 295° West 447 514 34,000  Level FlightAware
08:18AM 62.5280 16.2200 295° West 445 512 34,000  Level FlightAware
08:19AM 62.5540 16.0970 295° West 445 512 34,000  Level FlightAware
08:19AM 62.5850 15.9530 295° West 445 512 34,000  Level FlightAware
08:20AM 62.6180 15.7930 294° West 443 510 34,000  Level FlightAware
08:21AM 62.6480 15.6480 294° West 443 510 34,000  Level FlightAware
08:21AM 62.6760 15.5140 295° West 445 512 34,000  Level FlightAware
08:22AM 62.7080 15.3600 294° West 446 513 34,000  Level FlightAware
08:22AM 62.7330 15.2330 293° West 447 514 34,000  Level FlightAware
08:23AM 62.7710 15.0490 294° West 450 518 34,000  Level FlightAware
08:24AM 62.8010 14.8990 294° West 455 524 34,000  Level FlightAware
08:24AM 62.8290 14.7560 293° West 455 524 34,000  Level FlightAware
08:25AM 62.8590 14.6060 294° West 455 524 34,000  Level FlightAware
08:25AM 62.8880 14.4610 294° West 454 522 34,000  Level FlightAware
08:26AM 62.9160 14.3130 293° West 455 524 34,000  Level FlightAware
08:26AM 62.9450 14.1640 293° West 453 521 34,000  Level FlightAware
08:27AM 62.9730 14.0170 293° West 453 521 34,000  Level FlightAware
08:28AM 63.0000 13.8750 293° West 445 512 34,000  Level FlightAware
08:28AM 63.0240 13.7530 293° West 444 511 34,000  Level FlightAware
08:29AM 63.0520 13.6030 292° West 444 511 34,000  Level FlightAware
08:29AM 63.0800 13.4520 292° West 444 511 34,000  Level FlightAware
08:30AM 63.1060 13.3140 293° West 446 513 34,000  Level FlightAware
08:30AM 63.1330 13.1640 292° West 444 511 34,000  Level FlightAware
08:31AM 63.1610 13.0090 292° West 443 510 34,000  Level FlightAware
08:32AM 63.1880 12.8640 292° West 443 510 34,000  Level FlightAware
08:32AM 63.2160 12.7080 292° West 444 511 34,000  Level FlightAware
08:33AM 63.2400 12.5730 292° West 447 514 34,000  Level FlightAware
08:33AM 63.2660 12.4220 291° West 449 517 34,000  Level FlightAware
08:34AM 63.2940 12.2650 292° West 451 519 34,000  Level FlightAware
08:35AM 63.3210 12.1100 291° West 451 519 34,000  Level FlightAware
08:35AM 63.3400 11.9670 287° West 444 511 34,000  Level FlightAware
08:36AM 63.3540 11.8350 283° West 442 509 34,000  Level FlightAware
08:36AM 63.3750 11.6510 284° West 444 511 34,000  Level FlightAware
08:37AM 63.3920 11.4890 283° West 445 512 34,000  Level FlightAware
08:37AM 63.4070 11.3440 283° West 449 517 34,000  Level FlightAware
08:38AM 63.4240 11.1830 283° West 449 517 34,000  Level FlightAware
08:39AM 63.4400 11.0220 283° West 444 511 34,000  Level FlightAware
08:39AM 63.4560 10.8660 283° West 442 509 34,000  Level FlightAware
08:40AM 63.4690 10.7360 283° West 442 509 34,000  Level FlightAware
08:40AM 63.4880 10.5490 283° West 445 512 34,000  Level FlightAware
08:41AM 63.5040 10.3860 282° West 448 516 34,000  Level FlightAware
08:42AM 63.5180 10.2380 282° West 451 519 34,000  Level FlightAware
08:42AM 63.5310 10.1020 282° West 451 519 34,000  Level FlightAware
08:43AM 63.5480 9.9200 282° West 452 520 34,000  Level FlightAware
08:43AM 63.5620 9.7730 282° West 454 522 34,000  Level FlightAware
08:44AM 63.5770 9.6040 281° West 451 519 34,000  Level FlightAware
08:44AM 63.5910 9.4560 282° West 449 517 34,000  Level FlightAware
08:45AM 63.6060 9.2900 282° West 444 511 34,000  Level FlightAware
08:46AM 63.6200 9.1250 281° West 442 509 34,000  Level FlightAware
08:46AM 63.6340 8.9660 281° West 437 503 34,000  Level FlightAware
08:47AM 63.6460 8.8250 281° West 429 494 34,000  Level FlightAware
08:47AM 63.6580 8.6910 281° West 428 493 34,000  Level FlightAware
08:48AM 63.6710 8.5310 280° West 426 490 34,000  Level FlightAware
08:49AM 63.6850 8.3580 280° West 423 487 34,000  Level FlightAware
08:49AM 63.6980 8.2000 281° West 421 484 34,000  Level FlightAware
08:50AM 63.7110 8.0430 281° West 420 483 34,000  Level FlightAware
08:50AM 63.7210 7.9070 279° West 420 483 34,000  Level FlightAware
08:51AM 63.7330 7.7650 281° West 421 484 34,000  Level FlightAware
08:51AM 63.7450 7.6040 280° West 420 483 34,000  Level FlightAware
08:52AM 63.7570 7.4500 280° West 418 481 34,000  Level FlightAware
08:53AM 63.7680 7.2930 279° West 418 481 34,000  Level FlightAware
08:53AM 63.7790 7.1440 280° West 418 481 34,000 120 Level FlightAware
08:54AM 63.7900 7.0010 280° West 423 487 34,200 600 Climbing FlightAware
08:54AM 63.8010 6.8420 279° West 425 489 34,700 480 Climbing FlightAware
08:55AM 63.8120 6.6770 279° West 435 501 34,800 360 Climbing FlightAware
08:56AM 63.8240 6.5100 279° West 438 504 35,200 600 Climbing FlightAware
08:56AM 63.8340 6.3680 279° West 440 506 35,500 600 Climbing FlightAware
08:57AM 63.8440 6.2180 279° West 441 507 35,900 420 Climbing FlightAware
08:57AM 63.8540 6.0580 278° West 444 511 36,000 60 Climbing FlightAware
08:58AM 63.8650 5.8880 278° West 443 510 36,000  Level FlightAware
08:59AM 63.8760 5.7190 278° West 444 511 36,000  Level FlightAware
08:59AM 63.8850 5.5720 278° West 439 505 36,000  Level FlightAware
09:00AM 63.8970 5.3560 277° West 439 505 36,000  Level FlightAware
09:01AM 63.9030 5.2160 276° West 439 505 36,000  Level FlightAware
09:01AM 63.9160 5.0580 281° West 516 594 36,000  Level FlightAware
09:04AM 63.9561 4.4153 278° West  Level Estimated
09:05AM 63.9712 4.1595 278° West  Level Estimated
09:06AM 63.9858 3.9034 278° West  Level Estimated
09:07AM 64.0001 3.6470 277° West  Level Estimated
09:08AM 64.0138 3.3903 277° West  Level Estimated
09:09AM 64.0272 3.1334 277° West  Level Estimated
09:10AM 64.0400 2.8763 277° West  Level Estimated
09:11AM 64.0524 2.6189 276° West  Level Estimated
09:12AM 64.0644 2.3613 276° West  Level Estimated
09:13AM 64.0759 2.1035 276° West  Level Estimated
09:14AM 64.0869 1.8454 276° West  Level Estimated
09:15AM 64.0975 1.5872 275° West  Level Estimated
09:16AM 64.1076 1.3288 275° West  Level Estimated
09:17AM 64.1173 1.0702 275° West  Level Estimated
09:18AM 64.1265 0.8114 275° West  Level Estimated
09:19AM 64.1352 0.5524 275° West  Level Estimated
09:20AM 64.1435 0.2933 274° West  Level Estimated
09:20AM 64.1260 -0.3200 274° West 435 501 36,000  Level FlightAware
09:21AM 64.1514 0.0341 274° West  Level Estimated
09:21AM 64.1290 -0.4690 273° West 435 501 36,000  Level FlightAware
09:22AM 64.1320 -0.6400 272° West 435 501 36,000  Level FlightAware
09:22AM 64.1350 -0.7950 273° West 434 499 36,000  Level FlightAware
09:23AM 64.1370 -0.9520 272° West 434 499 36,000  Level FlightAware
09:23AM 64.1400 -1.1190 272° West 436 502 36,000  Level FlightAware
09:24AM 64.1420 -1.2720 272° West 438 504 36,000  Level FlightAware
09:24AM 64.1440 -1.4240 272° West 439 505 36,000  Level FlightAware
09:25AM 64.1460 -1.5610 272° West 440 506 36,000  Level FlightAware
09:26AM 64.1480 -1.8260 271° West 439 505 36,000  Level FlightAware
09:27AM 64.1500 -2.0370 271° West 438 504 36,000  Level FlightAware
09:27AM 64.1510 -2.1800 271° West 438 504 36,000  Level FlightAware
09:28AM 64.1520 -2.3140 271° West 438 504 36,000  Level FlightAware
09:29AM 64.1530 -2.4480 271° West 438 504 36,000  Level FlightAware
09:29AM 64.1540 -2.5900 271° West 438 504 36,000  Level FlightAware
09:30AM 64.1560 -2.7440 272° West 438 504 36,000  Level FlightAware
09:30AM 64.1560 -3.0460 270° West 433 498 36,000  Level FlightAware
09:31AM 64.1560 -3.2550 270° West 432 497 36,000  Level FlightAware
09:32AM 64.1560 -3.4130 270° West 433 498 36,000  Level FlightAware
09:32AM 64.1550 -3.6300 269° West 434 499 36,000  Level FlightAware
09:33AM 64.1550 -3.7920 270° West 433 498 36,000  Level FlightAware
09:34AM 64.1540 -3.9500 269° West 433 498 36,000  Level FlightAware
09:34AM 64.1530 -4.1030 269° West 432 497 36,000  Level FlightAware
09:35AM 64.1520 -4.2510 269° West 431 496 36,000  Level FlightAware
09:35AM 64.1510 -4.4320 269° West 431 496 36,000  Level FlightAware
09:36AM 64.1500 -4.5750 269° West 431 496 36,000  Level FlightAware
09:37AM 64.1480 -4.7410 268° West 431 496 36,000  Level FlightAware
09:37AM 64.1470 -4.9050 269° West 432 497 36,000  Level FlightAware
09:38AM 64.1450 -5.0680 268° West 432 497 36,000  Level FlightAware
09:38AM 64.1430 -5.2230 268° West 432 497 36,000  Level FlightAware
09:39AM 64.1410 -5.3780 268° West 432 497 36,000  Level FlightAware
09:39AM 64.1380 -5.5460 268° West 432 497 36,000  Level FlightAware
09:40AM 64.1360 -5.7010 268° West 433 498 36,000  Level FlightAware
09:41AM 64.1330 -5.8740 268° West 433 498 36,000  Level FlightAware
09:41AM 64.1300 -6.0070 267° West 432 497 36,000  Level FlightAware
09:42AM 64.1270 -6.1770 268° West 431 496 36,000  Level FlightAware
09:42AM 64.1230 -6.3360 267° West 431 496 36,000  Level FlightAware
09:43AM 64.1200 -6.5170 268° West 432 497 36,000  Level FlightAware
09:44AM 64.1160 -6.6920 267° West 431 496 36,000  Level FlightAware
09:44AM 64.1120 -6.8450 267° West 431 496 36,000  Level FlightAware
09:45AM 64.1080 -7.0100 267° West 430 495 36,000  Level FlightAware
09:45AM 64.1040 -7.1540 266° West 430 495 36,000  Level FlightAware
09:46AM 64.1000 -7.3160 267° West 431 496 36,000  Level FlightAware
09:47AM 64.0930 -7.5310 266° West 431 496 36,000  Level FlightAware
09:47AM 64.0890 -7.6700 266° West 431 496 36,000  Level FlightAware
09:48AM 64.0850 -7.8090 266° West 431 496 36,000  Level FlightAware
09:49AM 64.0810 -7.9490 266° West 431 496 36,000  Level FlightAware
09:49AM 64.0760 -8.0880 265° West 431 496 36,000  Level FlightAware
09:50AM 64.0720 -8.2270 266° West 431 496 36,000  Level FlightAware
09:50AM 64.0680 -8.3660 266° West 431 496 36,000  Level FlightAware
09:51AM 64.0630 -8.5090 265° West 431 496 36,000  Level FlightAware
09:52AM 64.0590 -8.6490 266° West 431 496 36,000  Level FlightAware
09:52AM 64.0540 -8.7950 266° West 431 496 36,000  Level FlightAware
09:53AM 64.0500 -8.9350 266° West 431 496 36,000  Level FlightAware
09:53AM 64.0460 -9.0740 266° West 431 496 36,000  Level FlightAware
09:54AM 64.0420 -9.2130 266° West 431 496 36,000  Level FlightAware
09:55AM 64.0370 -9.3520 265° West 431 496 36,000  Level FlightAware
09:55AM 64.0330 -9.4950 266° West 431 496 36,000  Level FlightAware
09:56AM 64.0290 -9.6370 266° West 431 496 36,000  Level FlightAware
09:56AM 63.9890 -10.1880 261° West 433 498 36,000  Level FlightAware
09:57AM 63.9780 -10.3500 261° West 435 501 36,000  Level FlightAware
09:58AM 63.9680 -10.4940 261° West 434 499 36,000  Level FlightAware
09:58AM 63.9570 -10.6630 262° West 436 502 36,000  Level FlightAware
09:59AM 63.9470 -10.8170 262° West 436 502 36,000  Level FlightAware
09:59AM 63.9350 -10.9810 261° West 436 502 36,000  Level FlightAware
10:00AM 63.9250 -11.1260 261° West 435 501 36,000  Level FlightAware
10:01AM 63.9140 -11.2870 261° West 435 501 36,000  Level FlightAware
10:01AM 63.9040 -11.4290 261° West 437 503 36,000  Level FlightAware
10:02AM 63.8900 -11.6110 260° West 438 504 36,000  Level FlightAware
10:02AM 63.8780 -11.7760 261° West 438 504 36,000  Level FlightAware
10:03AM 63.8670 -11.9230 260° West 438 504 36,000  Level FlightAware
10:03AM 63.8550 -12.0800 260° West 438 504 36,000  Level FlightAware
10:04AM 63.8420 -12.2440 260° West 437 503 36,000  Level FlightAware
10:05AM 63.8300 -12.3890 259° West 438 504 36,000  Level FlightAware
10:05AM 63.8170 -12.5510 260° West 439 505 36,000  Level FlightAware
10:06AM 63.8040 -12.7130 260° West 438 504 36,000  Level FlightAware
10:06AM 63.7910 -12.8740 260° West 436 502 36,000  Level FlightAware
10:07AM 63.7770 -13.0370 259° West 436 502 36,000  Level FlightAware
10:08AM 63.7650 -13.1790 259° West 437 503 36,000  Level FlightAware
10:08AM 63.7520 -13.3280 259° West 438 504 36,000  Level FlightAware
10:09AM 63.7370 -13.5040 259° West 438 504 36,000  Level FlightAware
10:09AM 63.7240 -13.6470 258° West 437 503 36,000  Level FlightAware
10:10AM 63.7110 -13.7960 259° West 437 503 36,000  Level FlightAware
10:10AM 63.6950 -13.9660 258° West 438 504 36,000  Level FlightAware
10:11AM 63.6800 -14.1250 258° West 438 504 36,000  Level FlightAware
10:12AM 63.6660 -14.2820 259° West 439 505 36,000  Level FlightAware
10:12AM 63.6520 -14.4250 258° West 439 505 36,000  Level FlightAware
10:13AM 63.6360 -14.5900 258° West 438 504 36,000  Level FlightAware
10:13AM 63.6200 -14.7560 258° West 438 504 36,000  Level FlightAware
10:14AM 63.6070 -14.8880 258° West 438 504 36,000  Level FlightAware
10:15AM 63.5920 -15.0390 257° West 439 505 36,000  Level FlightAware
10:15AM 63.5750 -15.2110 258° West 441 507 36,000  Level FlightAware
10:16AM 63.5600 -15.3610 257° West 442 509 36,000  Level FlightAware
10:16AM 63.5420 -15.5310 257° West 443 510 36,000  Level FlightAware
10:17AM 63.5260 -15.6880 257° West 443 510 36,000  Level FlightAware
10:17AM 63.5120 -15.8240 257° West 443 510 36,000  Level FlightAware
10:18AM 63.4960 -15.9750 257° West 443 510 36,000  Level FlightAware
10:19AM 63.4770 -16.1520 257° West 442 509 36,000  Level FlightAware
10:19AM 63.4610 -16.2930 256° West 441 507 36,000  Level FlightAware
10:20AM 63.4450 -16.4430 257° West 440 506 36,000  Level FlightAware
10:20AM 63.4260 -16.6100 256° West 439 505 36,000  Level FlightAware
10:21AM 63.4080 -16.7670 256° West 438 504 36,000  Level FlightAware
10:22AM 63.3920 -16.9090 256° West 436 502 36,000  Level FlightAware
10:22AM 63.3740 -17.0700 256° West 435 501 36,000  Level FlightAware
10:23AM 63.3560 -17.2220 255° West 435 501 36,000  Level FlightAware
10:23AM 63.3400 -17.3610 256° West 436 502 36,000  Level FlightAware
10:24AM 63.3210 -17.5170 255° West 435 501 36,000  Level FlightAware
10:24AM 63.3030 -17.6670 255° West 433 498 36,000  Level FlightAware
10:25AM 63.2840 -17.8220 255° West 431 496 36,000  Level FlightAware
10:26AM 63.2670 -17.9620 255° West 432 497 36,000  Level FlightAware
10:26AM 63.2490 -18.1120 255° West 434 499 36,000  Level FlightAware
10:27AM 63.2300 -18.2640 255° West 434 499 36,000  Level FlightAware
10:27AM 63.2110 -18.4170 255° West 434 499 36,000  Level FlightAware
10:28AM 63.1930 -18.5530 254° West 434 499 36,000  Level FlightAware
10:29AM 63.1720 -18.7180 254° West 435 501 36,000  Level FlightAware
10:29AM 63.1550 -18.8490 254° West 437 503 36,000  Level FlightAware
10:30AM 63.1340 -19.0110 254° West 438 504 36,000  Level FlightAware
10:30AM 63.1140 -19.1650 254° West 438 504 36,000  Level FlightAware
10:31AM 63.0940 -19.3140 254° West 437 503 36,000  Level FlightAware
10:31AM 63.0740 -19.4600 253° West 437 503 36,000  Level FlightAware
10:32AM 63.0540 -19.6070 253° West 437 503 36,000  Level FlightAware
10:33AM 63.0330 -19.7610 253° West 436 502 36,000  Level FlightAware
10:33AM 63.0130 -19.9090 253° West 435 501 36,000  Level FlightAware
10:34AM 62.9970 -20.0580 257° West 434 499 36,000  Level FlightAware
10:34AM 62.9870 -20.2160 262° West 434 499 36,000  Level FlightAware
10:35AM 62.9770 -20.3630 262° West 433 498 36,000  Level FlightAware
10:36AM 62.9680 -20.5110 262° West 434 499 36,000  Level FlightAware
10:36AM 62.9570 -20.6700 261° West 435 501 36,000  Level FlightAware
10:37AM 62.9460 -20.8300 261° West 436 502 36,000  Level FlightAware
10:37AM 62.9360 -20.9900 262° West 436 502 36,000  Level FlightAware
10:38AM 62.9260 -21.1230 261° West 436 502 36,000  Level FlightAware
10:39AM 62.9150 -21.2840 262° West 436 502 36,000  Level FlightAware
10:39AM 62.9050 -21.4190 261° West 435 501 36,000  Level FlightAware
10:40AM 62.8940 -21.5670 261° West 435 501 36,000  Level FlightAware
10:40AM 62.8820 -21.7380 261° West 433 498 36,000  Level FlightAware
10:41AM 62.8700 -21.8920 260° West 433 498 36,000  Level FlightAware
10:41AM 62.8580 -22.0480 260° West 435 501 36,000  Level FlightAware
10:42AM 62.8470 -22.1970 261° West 436 502 36,000  Level FlightAware
10:43AM 62.8350 -22.3440 260° West 437 503 36,000  Level FlightAware
10:43AM 62.8240 -22.4820 260° West 437 503 36,000  Level FlightAware
10:44AM 62.8120 -22.6320 260° West 438 504 36,000  Level FlightAware
10:44AM 62.8000 -22.7820 260° West 437 503 36,000  Level FlightAware
10:45AM 62.7850 -22.9550 259° West 439 505 36,000  Level FlightAware
10:45AM 62.7760 -23.0690 260° West 439 505 36,000  Level FlightAware
10:46AM 62.7630 -23.2240 260° West 439 505 36,000  Level FlightAware
10:47AM 62.7490 -23.3860 259° West 439 505 36,000  Level FlightAware
10:47AM 62.7350 -23.5390 259° West 438 504 36,000  Level FlightAware
10:48AM 62.7230 -23.6740 259° West 438 504 36,000  Level FlightAware
10:48AM 62.7090 -23.8360 259° West 438 504 36,000  Level FlightAware
10:49AM 62.6950 -23.9890 259° West 437 503 36,000  Level FlightAware
10:49AM 62.6820 -24.1270 258° West 436 502 36,000  Level FlightAware
10:50AM 62.6670 -24.2910 259° West 435 501 36,000  Level FlightAware
10:51AM 62.6530 -24.4300 258° West 434 499 36,000  Level FlightAware
10:51AM 62.6350 -24.6220 259° West 433 498 36,000  Level FlightAware
10:52AM 62.6220 -24.7580 258° West 432 497 36,000  Level FlightAware
10:53AM 62.6070 -24.9110 258° West 431 496 36,000  Level FlightAware
10:53AM 62.5920 -25.0630 258° West 430 495 36,000  Level FlightAware
10:54AM 62.5780 -25.2000 258° West 430 495 36,000  Level FlightAware
10:54AM 62.5630 -25.3510 258° West 432 497 36,000  Level FlightAware
10:55AM 62.5480 -25.4900 257° West 432 497 36,000  Level FlightAware
10:55AM 62.5310 -25.6530 257° West 432 497 36,000  Level FlightAware
10:56AM 62.5170 -25.7920 258° West 432 497 36,000  Level FlightAware
10:57AM 62.5010 -25.9360 257° West 431 496 36,000  Level FlightAware
10:57AM 62.4850 -26.0920 258° West 432 497 36,000  Level FlightAware
10:58AM 62.4690 -26.2320 256° West 431 496 36,000  Level FlightAware
10:58AM 62.4540 -26.3710 257° West 430 495 36,000  Level FlightAware
10:59AM 62.4370 -26.5270 257° West 429 494 36,000  Level FlightAware
11:00AM 62.4190 -26.6900 257° West 427 491 36,000  Level FlightAware
11:00AM 62.4010 -26.8450 256° West 428 493 36,000  Level FlightAware
11:01AM 62.3840 -26.9910 256° West 428 493 36,000  Level FlightAware
11:01AM 62.3670 -27.1430 257° West 427 491 36,000  Level FlightAware
11:02AM 62.3510 -27.2760 256° West 427 491 36,000  Level FlightAware
11:03AM 62.3340 -27.4240 256° West 426 490 36,000  Level FlightAware
11:03AM 62.3170 -27.5640 255° West 425 489 36,000  Level FlightAware
11:04AM 62.3040 -27.6750 256° West 424 488 36,000  Level FlightAware
11:04AM 62.2860 -27.8230 255° West 424 488 36,000  Level FlightAware
11:05AM 62.2690 -27.9610 255° West 424 488 36,000  Level FlightAware
11:05AM 62.2510 -28.1050 255° West 425 489 36,000  Level FlightAware
11:06AM 62.2330 -28.2480 255° West 425 489 36,000  Level FlightAware
11:06AM 62.2170 -28.3710 254° West 425 489 36,000  Level FlightAware
11:07AM 62.1980 -28.5250 255° West 427 491 36,000  Level FlightAware
11:08AM 62.1750 -28.7010 254° West 426 490 36,000  Level FlightAware
11:08AM 62.1560 -28.8460 254° West 424 488 36,000  Level FlightAware
11:09AM 62.1340 -29.0160 255° West 426 490 36,000  Level FlightAware
11:10AM 62.1150 -29.1590 254° West 426 490 36,000  Level FlightAware
11:10AM 62.0930 -29.3240 254° West 426 490 36,000  Level FlightAware
11:11AM 62.0780 -29.4390 254° West 426 490 36,000  Level FlightAware
11:12AM 62.0550 -29.6020 253° West 425 489 36,000  Level FlightAware
11:12AM 62.0390 -29.7230 254° West 425 489 36,000  Level FlightAware
11:13AM 62.0170 -29.8800 253° West 425 489 36,000  Level FlightAware
11:13AM 61.9990 -30.0240 255° West 423 487 36,000  Level FlightAware
11:14AM 61.9890 -30.1420 260° West 422 486 36,000  Level FlightAware
11:14AM 61.9770 -30.2700 259° West 422 486 36,000  Level FlightAware
11:15AM 61.9660 -30.3880 259° West 422 486 36,000  Level FlightAware
11:16AM 61.9550 -30.5130 259° West 422 486 36,000  Level FlightAware
11:16AM 61.9430 -30.6370 258° West 422 486 36,000  Level FlightAware
11:17AM 61.9320 -30.7660 260° West 422 486 36,000  Level FlightAware
11:17AM 61.9240 -30.8520 259° West 422 486 36,000  Level FlightAware
11:18AM 61.9120 -30.9800 259° West 422 486 36,000  Level FlightAware
11:18AM 61.9000 -31.1120 259° West 422 486 36,000  Level FlightAware
11:19AM 61.8880 -31.2400 259° West 422 486 36,000  Level FlightAware
11:20AM 61.8770 -31.3670 260° West 422 486 36,000  Level FlightAware
11:20AM 61.8650 -31.4920 259° West 422 486 36,000  Level FlightAware
11:21AM 61.8540 -31.6130 259° West 422 486 36,000  Level FlightAware
11:22AM 61.8430 -31.7370 259° West 422 486 36,000  Level FlightAware
11:22AM 61.8310 -31.8650 259° West 422 486 36,000  Level FlightAware
11:23AM 61.8190 -31.9890 258° West 422 486 36,000  Level FlightAware
11:23AM 61.8080 -32.1130 259° West 422 486 36,000  Level FlightAware
11:26AM 61.7017 -32.5851 245° Southwest  Level Estimated
11:27AM 61.6525 -32.8003 244° Southwest  Level Estimated
11:28AM 61.6029 -33.0147 244° Southwest  Level Estimated
11:29AM 61.5530 -33.2285 244° Southwest  Level Estimated
11:30AM 61.5028 -33.4416 244° Southwest  Level Estimated
11:31AM 61.4522 -33.6539 244° Southwest  Level Estimated
11:32AM 61.4013 -33.8657 243° Southwest  Level Estimated
11:33AM 61.3501 -34.0767 243° Southwest  Level Estimated
11:34AM 61.2986 -34.2870 243° Southwest  Level Estimated
11:35AM 61.2467 -34.4966 243° Southwest  Level Estimated
11:36AM 61.1945 -34.7055 243° Southwest  Level Estimated
11:37AM 61.1420 -34.9138 242° Southwest  Level Estimated
11:38AM 61.0892 -35.1213 242° Southwest  Level Estimated
11:39AM 61.0360 -35.3282 242° Southwest  Level Estimated
11:40AM 60.9826 -35.5343 242° Southwest  Level Estimated
11:41AM 60.9288 -35.7398 242° Southwest  Level Estimated
11:42AM 60.8747 -35.9446 242° Southwest  Level Estimated
11:43AM 60.8203 -36.1486 241° Southwest  Level Estimated
11:44AM 60.7656 -36.3520 241° Southwest  Level Estimated
11:45AM 60.7106 -36.5547 241° Southwest  Level Estimated
11:46AM 60.6553 -36.7567 241° Southwest  Level Estimated
11:47AM 60.5996 -36.9580 241° Southwest  Level Estimated
11:48AM 60.5437 -37.1586 241° Southwest  Level Estimated
11:49AM 60.4875 -37.3585 240° Southwest  Level Estimated
11:50AM 60.4310 -37.5577 240° Southwest  Level Estimated
11:51AM 60.3742 -37.7562 240° Southwest  Level Estimated
11:52AM 60.3171 -37.9541 240° Southwest  Level Estimated
11:53AM 60.2597 -38.1512 240° Southwest  Level Estimated
11:54AM 60.2020 -38.3476 239° Southwest  Level Estimated
11:55AM 60.1440 -38.5434 239° Southwest  Level Estimated
11:56AM 60.0857 -38.7385 239° Southwest  Level Estimated
11:57AM 60.0271 -38.9328 239° Southwest  Level Estimated
11:58AM 59.9683 -39.1265 239° Southwest  Level Estimated
11:59AM 59.9092 -39.3195 239° Southwest  Level Estimated
12:00PM 59.8498 -39.5118 238° Southwest  Level Estimated
12:01PM 59.7901 -39.7034 238° Southwest  Level Estimated
12:02PM 59.7301 -39.8944 238° Southwest  Level Estimated
12:03PM 59.6699 -40.0846 238° Southwest  Level Estimated
12:04PM 59.6094 -40.2742 238° Southwest  Level Estimated
12:05PM 59.5486 -40.4631 238° Southwest  Level Estimated
12:06PM 59.4875 -40.6512 237° Southwest  Level Estimated
12:07PM 59.4262 -40.8388 237° Southwest  Level Estimated
12:08PM 59.3646 -41.0256 237° Southwest  Level Estimated
12:09PM 59.3028 -41.2118 237° Southwest  Level Estimated
12:10PM 59.2406 -41.3973 237° Southwest  Level Estimated
12:11PM 59.1782 -41.5821 237° Southwest  Level Estimated
12:12PM 59.1156 -41.7662 237° Southwest  Level Estimated
12:13PM 59.0527 -41.9496 236° Southwest  Level Estimated
12:14PM 58.9895 -42.1324 236° Southwest  Level Estimated
12:15PM 58.9261 -42.3146 236° Southwest  Level Estimated
12:16PM 58.8624 -42.4960 236° Southwest  Level Estimated
12:17PM 58.7985 -42.6768 236° Southwest  Level Estimated
12:18PM 58.7343 -42.8569 236° Southwest  Level Estimated
12:19PM 58.6699 -43.0364 235° Southwest  Level Estimated
12:20PM 58.6052 -43.2151 235° Southwest  Level Estimated
12:21PM 58.5403 -43.3932 235° Southwest  Level Estimated
12:22PM 58.4751 -43.5707 235° Southwest  Level Estimated
12:23PM 58.4097 -43.7475 235° Southwest  Level Estimated
12:24PM 58.3440 -43.9237 235° Southwest  Level Estimated
12:25PM 58.2781 -44.0992 235° Southwest  Level Estimated
12:26PM 58.2120 -44.2740 234° Southwest  Level Estimated
12:27PM 58.1456 -44.4482 234° Southwest  Level Estimated
12:28PM 58.0790 -44.6217 234° Southwest  Level Estimated
12:29PM 58.0121 -44.7946 234° Southwest  Level Estimated
12:30PM 57.9450 -44.9669 234° Southwest  Level Estimated
12:31PM 57.8777 -45.1385 234° Southwest  Level Estimated
12:32PM 57.8102 -45.3094 233° Southwest  Level Estimated
12:33PM 57.7424 -45.4798 233° Southwest  Level Estimated
12:34PM 57.6744 -45.6494 233° Southwest  Level Estimated
12:35PM 57.6062 -45.8185 233° Southwest  Level Estimated
12:36PM 57.5377 -45.9869 233° Southwest  Level Estimated
12:37PM 57.4690 -46.1547 233° Southwest  Level Estimated
12:38PM 57.4001 -46.3218 233° Southwest  Level Estimated
12:39PM 57.3310 -46.4883 232° Southwest  Level Estimated
12:40PM 57.2617 -46.6542 232° Southwest  Level Estimated
12:41PM 57.1921 -46.8195 232° Southwest  Level Estimated
12:42PM 57.1223 -46.9841 232° Southwest  Level Estimated
12:43PM 57.0523 -47.1482 232° Southwest  Level Estimated
12:44PM 56.9822 -47.3116 232° Southwest  Level Estimated
12:45PM 56.9117 -47.4744 232° Southwest  Level Estimated
12:46PM 56.8411 -47.6366 232° Southwest  Level Estimated
12:47PM 56.7703 -47.7981 231° Southwest  Level Estimated
12:48PM 56.6992 -47.9591 231° Southwest  Level Estimated
12:49PM 56.6280 -48.1194 231° Southwest  Level Estimated
12:50PM 56.5565 -48.2792 231° Southwest  Level Estimated
12:51PM 56.4849 -48.4383 231° Southwest  Level Estimated
12:52PM 56.4130 -48.5969 231° Southwest  Level Estimated
12:53PM 56.3410 -48.7548 231° Southwest  Level Estimated
12:54PM 56.2687 -48.9122 230° Southwest  Level Estimated
12:55PM 56.1962 -49.0689 230° Southwest  Level Estimated
12:56PM 56.1236 -49.2251 230° Southwest  Level Estimated
12:57PM 56.0507 -49.3806 230° Southwest  Level Estimated
12:58PM 55.9777 -49.5356 230° Southwest  Level Estimated
12:59PM 55.9044 -49.6900 230° Southwest  Level Estimated
01:00PM 55.8310 -49.8438 230° Southwest  Level Estimated
01:01PM 55.7574 -49.9971 230° Southwest  Level Estimated
01:02PM 55.6835 -50.1497 229° Southwest  Level Estimated
01:03PM 55.6054 -50.3102 229° Southwest  Level Estimated
01:04PM 55.5271 -50.4701 229° Southwest  Level Estimated
01:05PM 55.4485 -50.6294 229° Southwest  Level Estimated
01:05PM 58.9000 -56.0167 228° Southwest 460 529 36,000  Level Gander Center
01:06PM 55.3698 -50.7880 229° Southwest  Level Estimated
01:06PM 58.8667 -56.2500 255° West 460 529 36,000  Level Gander Center
01:07PM 55.2908 -50.9460 229° Southwest  Level Estimated
01:07PM 58.8000 -56.4833 241° Southwest 460 529 36,000  Level Gander Center
01:08PM 55.2117 -51.1033 229° Southwest  Level Estimated
01:08PM 58.7000 -56.6333 218° Southwest 460 529 36,000  Level Gander Center
01:09PM 55.1323 -51.2600 229° Southwest  Level Estimated
01:09PM 58.6000 -56.7667 215° Southwest 460 529 36,000  Level Gander Center
01:10PM 55.0527 -51.4161 228° Southwest  Level Estimated
01:10PM 58.4833 -56.9167 214° Southwest 460 529 36,000  Level Gander Center
01:11PM 58.3833 -57.0500 215° Southwest 460 529 36,000  Level Gander Center
01:12PM 58.2667 -57.2000 214° Southwest 470 541 36,000  Level Gander Center
01:13PM 58.1833 -57.3333 220° Southwest 460 529 36,000  Level Gander Center
01:14PM 58.0667 -57.4667 211° Southwest 460 529 36,000  Level Gander Center
01:15PM 57.9500 -57.6000 211° Southwest 470 541 36,000  Level Gander Center
01:16PM 57.8500 -57.7333 215° Southwest 460 529 36,000  Level Gander Center
01:17PM 57.7500 -57.8833 219° Southwest 460 529 36,000  Level Gander Center
01:18PM 57.6500 -58.0167 216° Southwest 460 529 36,000  Level Gander Center
01:19PM 57.5333 -58.1500 212° Southwest 460 529 36,000  Level Gander Center
01:20PM 57.4167 -58.2833 212° Southwest 460 529 36,000  Level Gander Center
01:21PM 57.3167 -58.4167 216° Southwest 460 529 36,000  Level Gander Center
01:22PM 57.2000 -58.5333 208° Southwest 460 529 36,000  Level Gander Center
01:23PM 57.1167 -58.6667 221° Southwest 460 529 36,000  Level Gander Center
01:24PM 57.0000 -58.8000 212° Southwest 460 529 36,000  Level Gander Center
01:25PM 56.8833 -58.9333 212° Southwest 460 529 36,000  Level Gander Center
01:26PM 56.7833 -59.0500 213° Southwest 460 529 36,000  Level Gander Center
01:27PM 56.6667 -59.1833 212° Southwest 460 529 36,000  Level Gander Center
01:28PM 56.5500 -59.3167 212° Southwest 460 529 36,000  Level Gander Center
01:29PM 56.4500 -59.4333 213° Southwest 460 529 36,000  Level Gander Center
01:30PM 56.3333 -59.5667 212° Southwest 460 529 36,000  Level Gander Center
01:31PM 56.2500 -59.6833 218° Southwest 460 529 36,000  Level Gander Center
01:32PM 56.1333 -59.8167 213° Southwest 460 529 36,000  Level Gander Center
01:33PM 56.0333 -59.9333 213° Southwest 460 529 36,000  Level Gander Center
01:34PM 55.9167 -60.0667 213° Southwest 460 529 36,000  Level Gander Center
01:35PM 55.8000 -60.1833 209° Southwest 460 529 36,000  Level Gander Center
01:36PM 55.6833 -60.3000 209° Southwest 460 529 36,000  Level Gander Center
01:37PM 55.5833 -60.4333 217° Southwest 460 529 36,000  Level Gander Center
01:38PM 55.4833 -60.5167 205° Southwest 460 529 36,000  Level Gander Center
01:39PM 55.3667 -60.6667 216° Southwest 460 529 36,000  Level Gander Center
01:40PM 55.2500 -60.7500 202° Southwest 460 529 36,000  Level Gander Center
01:41PM 55.1500 -60.9000 221° Southwest 460 529 36,000  Level Gander Center
01:42PM 55.0333 -60.9833 202° Southwest 460 529 36,000  Level Gander Center
01:43PM 54.9167 -61.1000 210° Southwest 460 529 36,000  Level Gander Center
01:44PM 54.8167 -61.2167 214° Southwest 460 529 36,000  Level Gander Center
01:45PM 54.7000 -61.3333 210° Southwest 450 518 36,000  Level Gander Center
01:46PM 54.6000 -61.4500 214° Southwest 450 518 36,000  Level Gander Center
01:47PM 54.5000 -61.5667 214° Southwest 450 518 36,000  Level Gander Center
01:48PM 54.3833 -61.6833 210° Southwest 450 518 36,000  Level Gander Center
01:49PM 54.2833 -61.8000 214° Southwest 460 529 36,000  Level Gander Center
01:50PM 54.1667 -61.9167 210° Southwest 460 529 36,000  Level Gander Center
01:51PM 54.0667 -62.0000 206° Southwest 460 529 36,000  Level Gander Center
01:52PM 53.9500 -62.1333 214° Southwest 460 529 36,000  Level Gander Center
01:53PM 53.8500 -62.2167 206° Southwest 450 518 36,000  Level Gander Center
01:54PM 53.7333 -62.3333 211° Southwest 450 518 36,000  Level Gander Center
01:55PM 53.6167 -62.4333 207° Southwest 450 518 36,000  Level Gander Center
01:56PM 53.5000 -62.5500 211° Southwest 460 529 36,000  Level Gander Center
01:57PM 53.3833 -62.6500 207° Southwest 460 529 36,000  Level Gander Center
01:58PM 53.2833 -62.7667 215° Southwest 460 529 36,000  Level Gander Center
01:59PM 53.1667 -62.8667 207° Southwest 460 529 36,000  Level Gander Center
02:00PM 53.0667 -62.9833 215° Southwest 460 529 36,000  Level Gander Center
02:01PM 52.9500 -63.0833 207° Southwest 460 529 36,000  Level Gander Center
02:02PM 52.8500 -63.2000 215° Southwest 460 529 36,000  Level Gander Center
02:03PM 52.7333 -63.3000 207° Southwest 460 529 36,000  Level Gander Center
02:04PM 52.6333 -63.3833 207° Southwest 450 518 36,000  Level Gander Center
02:05PM 52.5000 -63.5000 208° Southwest 450 518 36,000  Level Gander Center
02:06PM 52.4000 -63.5833 207° Southwest 450 518 36,000  Level Gander Center
02:07PM 52.2833 -63.6833 208° Southwest 450 518 36,000  Level Gander Center
02:08PM 52.1833 -63.7833 212° Southwest 450 518 36,000  Level Gander Center
02:09PM 52.0667 -63.9000 212° Southwest 450 518 36,000  Level Gander Center
02:10PM 51.9667 -64.0000 212° Southwest 460 529 36,000  Level Gander Center
02:11PM 51.8333 -64.1000 205° Southwest 460 529 36,000  Level Gander Center
02:12PM 51.7333 -64.2000 212° Southwest 460 529 36,000  Level Gander Center
02:13PM 51.6167 -64.3000 208° Southwest 460 529 36,000  Level Gander Center
02:14PM 51.5000 -64.4000 208° Southwest 460 529 36,000  Level Gander Center
02:15PM 51.4000 -64.5000 212° Southwest 460 529 36,000  Level Gander Center
02:16PM 51.3000 -64.5667 203° Southwest 460 529 36,000  Level Gander Center
02:17PM 51.1667 -64.6667 205° Southwest 460 529 36,000  Level Gander Center
02:18PM 51.0500 -64.7667 208° Southwest 460 529 36,000  Level Gander Center
02:19PM 50.9500 -64.8667 212° Southwest 460 529 36,000  Level Gander Center
02:20PM 50.8333 -64.9667 208° Southwest 460 529 36,000  Level Gander Center
02:21PM 50.7167 -65.0667 208° Southwest 460 529 36,000  Level Gander Center
02:22PM 50.6000 -65.1500 204° Southwest 460 529 36,000  Level Gander Center
02:23PM 50.4833 -65.2500 209° Southwest 450 518 36,000  Level Gander Center
02:24PM 50.3833 -65.3500 213° Southwest 450 518 36,000  Level Gander Center
02:25PM 50.2833 -65.4500 213° Southwest 460 529 36,000  Level Gander Center
02:26PM 50.1500 -65.5333 202° Southwest 460 529 36,000  Level Gander Center
02:27PM 50.0333 -65.6000 200° South 460 529 36,000  Level Gander Center
02:28PM 49.9333 -65.7333 221° Southwest 460 529 36,000  Level Gander Center
02:29PM 49.8167 -65.8000 200° South 450 518 36,000  Level Gander Center
02:30PM 49.7167 -65.8833 208° Southwest 450 518 36,000  Level Gander Center
02:31PM 49.5833 -65.9833 206° Southwest 450 518 36,000  Level Gander Center
02:32PM 49.4833 -66.0667 208° Southwest 450 518 36,000  Level Gander Center
02:33PM 49.3667 -66.1667 209° Southwest 450 518 36,000  Level Gander Center
02:34PM 49.2667 -66.2500 209° Southwest 450 518 36,000  Level Gander Center
02:35PM 49.1333 -66.3500 206° Southwest 450 518 36,000  Level Gander Center
02:36PM 49.0333 -66.4167 204° Southwest 450 518 36,000  Level Gander Center
02:37PM 48.9167 -66.5000 205° Southwest 450 518 36,000  Level Gander Center
02:38PM 48.8167 -66.5833 209° Southwest 450 518 36,000  Level Gander Center
02:39PM 48.7000 -66.6833 210° Southwest 460 529 36,000  Level Gander Center
02:40PM 48.5833 -66.7667 205° Southwest 460 529 36,000  Level Gander Center
02:41PM 48.4833 -66.8500 209° Southwest 460 529 36,000  Level Gander Center
02:42PM 48.3500 -66.9500 207° Southwest 460 529 36,000  Level Gander Center
02:43PM 48.2333 -67.0333 205° Southwest 460 529 36,000  Level Gander Center
02:44PM 48.1333 -67.1167 209° Southwest 460 529 36,000  Level Gander Center
02:45PM 48.0000 -67.2000 203° Southwest 460 529 36,000  Level Gander Center
02:46PM 47.8833 -67.2833 206° Southwest 470 541 36,000  Level Gander Center
02:47PM 47.7833 -67.3833 214° Southwest 470 541 36,000  Level Gander Center
02:48PM 47.6667 -67.4667 206° Southwest 470 541 36,000  Level Gander Center
02:49PM 47.5333 -67.5500 203° Southwest 460 529 36,000  Level Gander Center
02:54PM 46.9850 -67.9810 203° Southwest 36,000  Level FlightAware
02:56PM 46.7400 -68.1930 211° Southwest 36,000  Level FlightAware
02:57PM 46.6720 -68.2520 211° Southwest 462 532 36,000  Level FlightAware
02:57PM 46.6070 -68.3090 211° Southwest 465 535 36,000  Level FlightAware
02:58PM 46.5300 -68.3740 210° Southwest 465 535 36,000  Level FlightAware
02:58PM 46.4610 -68.4340 211° Southwest 464 534 36,000  Level FlightAware
02:59PM 46.3840 -68.5000 211° Southwest 464 534 36,000  Level FlightAware
03:00PM 46.3310 -68.5450 210° Southwest 462 532 36,000  Level FlightAware
03:00PM 46.2540 -68.6110 211° Southwest 464 534 36,000  Level FlightAware
03:01PM 46.1890 -68.6660 210° Southwest 463 533 36,000  Level FlightAware
03:01PM 46.1250 -68.7210 211° Southwest 462 532 36,000  Level FlightAware
03:02PM 46.0600 -68.7750 210° Southwest 463 533 36,000  Level FlightAware
03:03PM 45.9960 -68.8290 210° Southwest 462 532 36,000  Level FlightAware
03:03PM 45.9340 -68.8810 210° Southwest 455 524 36,000  Level FlightAware
03:04PM 45.8700 -68.9350 210° Southwest 449 517 36,000  Level FlightAware
03:04PM 45.8070 -68.9880 210° Southwest 447 514 36,000  Level FlightAware
03:05PM 45.7450 -69.0390 210° Southwest 444 511 36,000  Level FlightAware
03:06PM 45.6830 -69.0910 210° Southwest 444 511 36,000  Level FlightAware
03:06PM 45.6220 -69.1420 210° Southwest 444 511 36,000  Level FlightAware
03:07PM 45.5590 -69.1930 210° Southwest 446 513 36,000  Level FlightAware
03:07PM 45.5080 -69.2360 211° Southwest 446 513 36,000  Level FlightAware
03:08PM 45.4350 -69.2950 210° Southwest 439 505 36,000  Level FlightAware
03:08PM 45.3740 -69.3450 210° Southwest 435 501 36,000  Level FlightAware
03:09PM 45.3150 -69.3940 210° Southwest 434 499 36,000  Level FlightAware
03:10PM 45.2440 -69.4520 210° Southwest 434 499 36,000  Level FlightAware
03:10PM 45.1830 -69.5010 210° Southwest 432 497 36,000  Level FlightAware
03:11PM 45.1230 -69.5500 210° Southwest 431 496 36,000  Level FlightAware
03:11PM 45.0630 -69.5990 210° Southwest 429 494 36,000  Level FlightAware
03:12PM 45.0040 -69.6470 210° Southwest 426 490 36,000  Level FlightAware
03:13PM 44.9470 -69.6930 210° Southwest 425 489 36,000  Level FlightAware
03:13PM 44.8850 -69.7420 209° Southwest 423 487 36,000  Level FlightAware
03:14PM 44.8260 -69.7900 210° Southwest 421 484 36,000  Level FlightAware
03:14PM 44.7580 -69.8440 209° Southwest 420 483 36,000  Level FlightAware
03:15PM 44.6990 -69.8910 210° Southwest 417 480 36,000  Level FlightAware
03:16PM 44.6460 -69.9340 210° Southwest 416 479 36,000  Level FlightAware
03:16PM 44.5890 -69.9780 209° Southwest 412 474 36,000  Level FlightAware
03:17PM 44.5290 -70.0270 210° Southwest 405 466 36,000  Level FlightAware
03:17PM 44.4740 -70.0700 209° Southwest 402 463 36,000  Level FlightAware
03:18PM 44.4160 -70.1150 209° Southwest 401 461 36,000  Level FlightAware
03:18PM 44.3580 -70.1610 210° Southwest 399 459 36,000  Level FlightAware
03:19PM 44.3010 -70.2060 209° Southwest 395 455 36,000  Level FlightAware
03:20PM 44.2510 -70.2460 210° Southwest 394 453 36,000  Level FlightAware
03:20PM 44.1920 -70.2910 209° Southwest 393 452 36,000  Level FlightAware
03:21PM 44.1320 -70.3380 209° Southwest 390 449 36,000  Level FlightAware
03:21PM 44.0790 -70.3800 210° Southwest 388 447 36,000  Level FlightAware
03:22PM 44.0270 -70.4200 209° Southwest 388 447 36,000  Level FlightAware
03:23PM 43.9770 -70.4590 209° Southwest 387 445 36,000  Level FlightAware
03:23PM 43.9180 -70.5040 209° Southwest 384 442 36,000  Level FlightAware
03:24PM 43.8620 -70.5480 210° Southwest 382 440 36,000  Level FlightAware
03:24PM 43.8110 -70.5870 209° Southwest 381 438 36,000  Level FlightAware
03:25PM 43.7550 -70.6300 209° Southwest 380 437 36,000  Level FlightAware
03:25PM 43.7010 -70.6720 209° Southwest 380 437 36,000  Level FlightAware
03:26PM 43.6440 -70.7150 209° Southwest 380 437 36,000  Level FlightAware
03:27PM 43.5950 -70.7520 209° Southwest 380 437 36,000  Level FlightAware
03:27PM 43.5390 -70.7950 209° Southwest 381 438 36,000  Level FlightAware
03:28PM 43.4850 -70.8360 209° Southwest 381 438 36,000  Level FlightAware
03:28PM 43.4340 -70.8750 209° Southwest 381 438 36,000  Level FlightAware
03:29PM 43.3790 -70.9170 209° Southwest 382 440 36,000  Level FlightAware
03:30PM 43.3210 -70.9610 209° Southwest 382 440 36,000  Level FlightAware
03:30PM 43.2700 -70.9990 208° Southwest 383 441 36,000  Level FlightAware
03:31PM 43.2140 -71.0410 209° Southwest 388 447 36,000  Level FlightAware
03:31PM 43.1600 -71.0820 209° Southwest 393 452 36,000  Level FlightAware
03:32PM 43.1030 -71.1250 209° Southwest 392 451 36,000  Level FlightAware
03:32PM 43.0460 -71.1670 208° Southwest 391 450 36,000  Level FlightAware
03:33PM 42.9950 -71.2060 209° Southwest 391 450 36,000  Level FlightAware
03:34PM 42.9390 -71.2470 208° Southwest 389 448 36,000  Level FlightAware
03:34PM 42.8820 -71.2900 209° Southwest 388 447 36,000  Level FlightAware
03:35PM 42.8230 -71.3330 208° Southwest 389 448 36,000  Level FlightAware
03:35PM 42.7750 -71.3690 209° Southwest 389 448 36,000  Level FlightAware
03:36PM 42.7180 -71.4110 208° Southwest 390 449 36,000  Level FlightAware
03:37PM 42.6610 -71.4530 208° Southwest 390 449 36,000  Level FlightAware
03:37PM 42.6040 -71.4950 208° Southwest 390 449 36,000  Level FlightAware
03:38PM 42.5520 -71.5340 209° Southwest 390 449 36,000  Level FlightAware
03:38PM 42.5000 -71.5710 208° Southwest 388 447 36,000  Level FlightAware
03:39PM 42.4380 -71.6170 209° Southwest 385 443 36,000  Level FlightAware
03:39PM 42.3820 -71.6580 208° Southwest 384 442 36,000  Level FlightAware
03:40PM 42.3320 -71.6940 208° Southwest 383 441 36,000  Level FlightAware
03:41PM 42.2650 -71.7430 208° Southwest 383 441 36,000  Level FlightAware
03:41PM 42.2110 -71.7820 208° Southwest 383 441 36,000  Level FlightAware
03:42PM 42.1620 -71.8180 209° Southwest 383 441 36,000  Level FlightAware
03:42PM 42.1020 -71.8610 208° Southwest 384 442 36,000  Level FlightAware
03:43PM 42.0460 -71.9020 209° Southwest 383 441 36,000  Level FlightAware
03:44PM 41.9950 -71.9390 208° Southwest 383 441 36,000  Level FlightAware
03:44PM 41.9390 -71.9790 208° Southwest 384 442 36,000  Level FlightAware
03:45PM 41.8830 -72.0180 207° Southwest 384 442 36,000  Level FlightAware
03:45PM 41.8410 -72.0490 209° Southwest 385 443 36,000  Level FlightAware
03:46PM 41.7820 -72.0910 208° Southwest 385 443 36,000  Level FlightAware
03:46PM 41.7380 -72.1220 208° Southwest 386 444 36,000  Level FlightAware
03:47PM 41.6700 -72.1700 208° Southwest 386 444 36,000  Level FlightAware
03:48PM 41.6190 -72.2070 208° Southwest 387 445 36,000  Level FlightAware
03:48PM 41.5640 -72.2460 208° Southwest 388 447 36,000  Level FlightAware
03:49PM 41.5050 -72.2880 208° Southwest 389 448 36,000  Level FlightAware
03:49PM 41.4540 -72.3240 208° Southwest 391 450 36,000  Level FlightAware
03:50PM 41.4020 -72.3600 207° Southwest 391 450 36,000  Level FlightAware
03:51PM 41.3440 -72.4010 208° Southwest 391 450 36,000  Level FlightAware
03:51PM 41.2830 -72.4440 208° Southwest 391 450 36,000  Level FlightAware
03:52PM 41.2290 -72.4820 208° Southwest 390 449 36,000  Level FlightAware
03:52PM 41.1780 -72.5240 212° Southwest 381 438 36,000  Level FlightAware
03:53PM 41.1260 -72.5760 217° Southwest 383 441 36,000  Level FlightAware
03:53PM 41.0760 -72.6260 217° Southwest 384 442 36,000  Level FlightAware
03:54PM 41.0320 -72.6700 217° Southwest 386 444 36,000  Level FlightAware
03:55PM 40.9780 -72.7230 217° Southwest 387 445 36,000  Level FlightAware
03:55PM 40.9506 -72.7503 217° Southwest 387 445 36,000  Level FlightAware ADS-B
03:55PM 40.9060 -72.7944 217° Southwest 389 448 36,000  Level FlightAware ADS-B
03:56PM 40.8606 -72.8392 217° Southwest 389 448 36,000  Level FlightAware ADS-B
03:56PM 40.8170 -72.8821 217° Southwest 388 447 36,000  Level FlightAware ADS-B
03:57PM 40.7714 -72.9270 217° Southwest 388 447 36,000  Level FlightAware ADS-B
03:58PM 40.7252 -72.9723 217° Southwest 387 445 36,000  Level FlightAware ADS-B
03:58PM 40.6821 -73.0146 217° Southwest 387 445 36,000  Level FlightAware ADS-B
03:59PM 40.6363 -73.0594 217° Southwest 387 445 36,000  Level FlightAware ADS-B
03:59PM 40.5907 -73.1039 217° Southwest 387 445 36,000  Level FlightAware ADS-B
04:00PM 40.5364 -73.1568 217° Southwest 387 445 36,000  Level FlightAware ADS-B
04:00PM 40.4834 -73.2083 216° Southwest 386 444 36,000  Level FlightAware ADS-B
04:01PM 40.4290 -73.2611 216° Southwest 386 444 36,000  Level FlightAware ADS-B
04:02PM 40.3778 -73.3106 216° Southwest 385 443 36,000  Level FlightAware ADS-B
04:02PM 40.3121 -73.3741 216° Southwest 386 444 36,000  Level FlightAware ADS-B
04:03PM 40.2572 -73.4272 216° Southwest 387 445 36,000  Level FlightAware ADS-B
04:04PM 40.2032 -73.4791 216° Southwest 391 450 36,000  Level FlightAware ADS-B
04:04PM 40.1577 -73.5228 216° Southwest 391 450 36,000  Level FlightAware ADS-B
04:05PM 40.1132 -73.5655 216° Southwest 391 450 36,000  Level FlightAware ADS-B
04:05PM 40.0710 -73.6060 216° Southwest 392 451 36,000  Level FlightAware
04:05PM 40.0416 -73.6339 216° Southwest 391 450 36,000  Level FlightAware ADS-B
04:06PM 39.9880 -73.6850 216° Southwest 391 450 36,000  Level FlightAware ADS-B
04:07PM 39.9443 -73.7267 216° Southwest 389 448 36,000  Level FlightAware ADS-B
04:07PM 39.8991 -73.7696 216° Southwest 389 448 36,000  Level FlightAware ADS-B
04:08PM 39.8550 -73.8115 216° Southwest 388 447 36,000  Level FlightAware ADS-B
04:08PM 39.8084 -73.8557 216° Southwest 381 438 36,000  Level FlightAware ADS-B
04:09PM 39.7545 -73.9067 216° Southwest 376 433 36,000  Level FlightAware ADS-B
04:09PM 39.7047 -73.9538 216° Southwest 377 434 36,000  Level FlightAware ADS-B
04:10PM 39.6600 -73.9960 216° Southwest 376 433 36,000  Level FlightAware ADS-B
04:11PM 39.6052 -74.0476 216° Southwest 376 433 36,000  Level FlightAware ADS-B
04:11PM 39.5603 -74.0897 216° Southwest 375 432 36,000  Level FlightAware ADS-B
04:12PM 39.5135 -74.1335 216° Southwest 376 433 36,000  Level FlightAware ADS-B
04:12PM 39.4661 -74.1780 216° Southwest 377 434 36,000  Level FlightAware ADS-B
04:13PM 39.4234 -74.2180 216° Southwest 377 434 36,000  Level FlightAware ADS-B
04:13PM 39.3807 -74.2578 216° Southwest 377 434 36,000  Level FlightAware ADS-B
04:14PM 39.3343 -74.3010 216° Southwest 377 434 36,000  Level FlightAware ADS-B
04:15PM 39.2675 -74.3628 216° Southwest 378 435 36,000  Level FlightAware ADS-B
04:15PM 39.2161 -74.4022 211° Southwest 383 441 36,000  Level FlightAware ADS-B
04:16PM 39.1658 -74.4395 210° Southwest 383 441 36,000  Level FlightAware ADS-B
04:16PM 39.1196 -74.4745 210° Southwest 382 440 36,000  Level FlightAware ADS-B
04:17PM 39.0728 -74.5104 211° Southwest 381 438 36,000  Level FlightAware ADS-B
04:17PM 39.0257 -74.5464 211° Southwest 380 437 36,000  Level FlightAware ADS-B
04:18PM 38.9618 -74.5953 211° Southwest 382 440 36,000  Level FlightAware ADS-B
04:18PM 38.9161 -74.6302 211° Southwest 382 440 36,000  Level FlightAware ADS-B
04:19PM 38.8300 -74.6950 210° Southwest 376 433 36,000  Level FlightAware
04:20PM 38.8022 -74.7170 212° Southwest 383 441 36,000  Level FlightAware ADS-B
04:20PM 38.7548 -74.7529 211° Southwest 386 444 36,000  Level FlightAware ADS-B
04:21PM 38.7049 -74.7907 211° Southwest 387 445 36,000  Level FlightAware ADS-B
04:22PM 38.6242 -74.8519 211° Southwest 388 447 36,000  Level FlightAware ADS-B
04:22PM 38.5717 -74.8914 210° Southwest 387 445 36,000  Level FlightAware ADS-B
04:23PM 38.5080 -74.9390 210° Southwest 378 435 36,000  Level FlightAware
04:23PM 38.4469 -74.9853 211° Southwest 386 444 36,000  Level FlightAware ADS-B
04:24PM 38.3938 -75.0251 210° Southwest 386 444 36,000  Level FlightAware ADS-B
04:25PM 38.3488 -75.0588 210° Southwest 386 444 36,000  Level FlightAware ADS-B
04:25PM 38.2963 -75.0981 210° Southwest 388 447 36,000  Level FlightAware ADS-B
04:26PM 38.2400 -75.1400 210° Southwest 388 447 36,000  Level FlightAware
04:26PM 38.2002 -75.1697 210° Southwest 388 447 36,000  Level FlightAware ADS-B
04:27PM 38.1526 -75.2053 210° Southwest 389 448 36,000  Level FlightAware ADS-B
04:27PM 38.0988 -75.2452 210° Southwest 390 449 36,000  Level FlightAware ADS-B
04:28PM 38.0519 -75.2800 210° Southwest 392 451 36,000  Level FlightAware ADS-B
04:28PM 38.0038 -75.3157 210° Southwest 393 452 36,000 120 Level FlightAware ADS-B
04:29PM 37.9150 -75.3810 210° Southwest 394 453 36,200 420 Climbing FlightAware
04:30PM 37.8500 -75.4290 210° Southwest 396 456 36,700 780 Climbing FlightAware
04:30PM 37.7980 -75.4670 210° Southwest 397 457 37,200 1,080 Climbing FlightAware
04:31PM 37.7601 -75.4953 211° Southwest 402 463 37,700 840 Climbing FlightAware ADS-B
04:31PM 37.7065 -75.5347 210° Southwest 402 463 38,000 240 Climbing FlightAware ADS-B
04:32PM 37.6559 -75.5718 210° Southwest 405 466 38,000  Level FlightAware ADS-B
04:32PM 37.6042 -75.6097 210° Southwest 404 465 38,000  Level FlightAware ADS-B
04:33PM 37.5473 -75.6512 210° Southwest 405 466 38,000  Level FlightAware ADS-B
04:34PM 37.4990 -75.6870 210° Southwest 397 457 38,000  Level FlightAware
04:34PM 37.4350 -75.7330 210° Southwest 396 456 38,000  Level FlightAware
04:35PM 37.3790 -75.7740 210° Southwest 396 456 38,000  Level FlightAware
04:36PM 37.3020 -75.8300 210° Southwest 396 456 38,000  Level FlightAware
04:36PM 37.2460 -75.8700 210° Southwest 406 467 38,000  Level FlightAware
04:37PM 37.1967 -75.9057 210° Southwest 406 467 38,000  Level FlightAware ADS-B
04:37PM 37.1452 -75.9428 210° Southwest 406 467 38,000  Level FlightAware ADS-B
04:38PM 37.0930 -75.9803 210° Southwest 408 470 38,000  Level FlightAware ADS-B
04:38PM 37.0425 -76.0167 210° Southwest 409 471 38,000  Level FlightAware ADS-B
04:39PM 36.9784 -76.0627 210° Southwest 409 471 38,000  Level FlightAware ADS-B
04:39PM 36.9290 -76.0981 210° Southwest 409 471 38,000  Level FlightAware ADS-B
04:40PM 36.8752 -76.1364 210° Southwest 410 472 38,000  Level FlightAware ADS-B
04:40PM 36.8164 -76.1785 210° Southwest 413 475 38,000  Level FlightAware ADS-B
04:41PM 36.7650 -76.2150 210° Southwest 413 475 38,000  Level FlightAware
04:42PM 36.7060 -76.2570 210° Southwest 407 468 38,000  Level FlightAware
04:42PM 36.6290 -76.3120 210° Southwest 417 480 38,000  Level FlightAware
04:43PM 36.5820 -76.3460 210° Southwest 411 473 38,000  Level FlightAware
04:43PM 36.5180 -76.3900 209° Southwest 410 472 38,000  Level FlightAware
04:44PM 36.4600 -76.4310 210° Southwest 410 472 38,000  Level FlightAware
04:45PM 36.4030 -76.4720 210° Southwest 409 471 38,000  Level FlightAware
04:45PM 36.3350 -76.5200 210° Southwest 409 471 38,000  Level FlightAware
04:46PM 36.2760 -76.5610 209° Southwest 411 473 38,000  Level FlightAware
04:46PM 36.2160 -76.6030 209° Southwest 412 474 38,000  Level FlightAware
04:47PM 36.1670 -76.6370 209° Southwest 412 474 38,000  Level FlightAware
04:48PM 36.0990 -76.6850 210° Southwest 411 473 38,000  Level FlightAware
04:48PM 36.0390 -76.7260 209° Southwest 411 473 38,000  Level FlightAware
04:49PM 35.9780 -76.7700 210° Southwest 411 473 38,000  Level FlightAware
04:49PM 35.9220 -76.8080 209° Southwest 412 474 38,000  Level FlightAware
04:50PM 35.8660 -76.8480 210° Southwest 412 474 38,000  Level FlightAware
04:51PM 35.8140 -76.8850 210° Southwest 412 474 38,000  Level FlightAware
04:51PM 35.7630 -76.9210 210° Southwest 412 474 38,000  Level FlightAware
04:52PM 35.7130 -76.9570 210° Southwest 412 474 38,000  Level FlightAware
04:52PM 35.6620 -76.9930 210° Southwest 412 474 38,000  Level FlightAware
04:53PM 35.6120 -77.0290 210° Southwest 412 474 38,000  Level FlightAware
04:54PM 35.5600 -77.0660 210° Southwest 412 474 38,000  Level FlightAware
04:54PM 35.5120 -77.1000 210° Southwest 412 474 38,000  Level FlightAware
04:55PM 35.4610 -77.1350 209° Southwest 412 474 38,000  Level FlightAware
04:55PM 35.4090 -77.1720 210° Southwest 412 474 38,000  Level FlightAware
04:56PM 35.3590 -77.2080 210° Southwest 412 474 38,000  Level FlightAware
04:57PM 35.3080 -77.2440 210° Southwest 412 474 38,000  Level FlightAware
04:57PM 35.2580 -77.2790 210° Southwest 412 474 38,000  Level FlightAware
04:58PM 35.2070 -77.3150 210° Southwest 412 474 38,000  Level FlightAware
04:58PM 35.1570 -77.3510 210° Southwest 412 474 38,000  Level FlightAware
04:59PM 35.1060 -77.3860 209° Southwest 412 474 38,000  Level FlightAware
05:00PM 34.8467 -77.5408 209° Southwest 427 491 38,000  Level Washington Center
05:01PM 34.7347 -77.6214 211° Southwest 420 483 38,000  Level Washington Center
05:07PM 34.0560 -77.9600 211° Southwest 442 509 38,000  Level FlightAware
05:08PM 33.9860 -77.9810 194° South 442 509 38,000  Level FlightAware
05:08PM 33.9180 -78.0000 193° South 442 509 38,000  Level FlightAware
05:09PM 33.8360 -78.0240 194° South 441 507 38,000  Level FlightAware
05:09PM 33.7670 -78.0440 194° South 441 507 38,000  Level FlightAware
05:10PM 33.7020 -78.0620 193° South 442 509 38,000  Level FlightAware
05:11PM 33.6320 -78.0820 193° South 442 509 38,000  Level FlightAware
05:11PM 33.5420 -78.1080 194° South 445 512 38,000  Level FlightAware
05:12PM 33.4730 -78.1280 194° South 445 512 38,000  Level FlightAware
05:13PM 33.3980 -78.1490 193° South 445 512 38,000  Level FlightAware
05:13PM 33.3200 -78.1720 194° South 447 514 38,000  Level FlightAware
05:14PM 33.2450 -78.1930 193° South 448 516 38,000  Level FlightAware
05:14PM 33.1680 -78.2150 193° South 447 514 38,000  Level FlightAware
05:15PM 33.1030 -78.2330 193° South 446 513 38,000  Level FlightAware
05:16PM 33.0250 -78.2550 193° South 446 513 38,000  Level FlightAware
05:16PM 32.9460 -78.2780 194° South 447 514 38,000  Level FlightAware
05:17PM 32.8740 -78.2980 193° South 446 513 38,000  Level FlightAware
05:17PM 32.8070 -78.3170 193° South 446 513 38,000  Level FlightAware
05:18PM 32.7370 -78.3370 194° South 448 516 38,000  Level FlightAware
05:19PM 32.6650 -78.3570 193° South 448 516 38,000  Level FlightAware
05:19PM 32.5920 -78.3770 193° South 450 518 38,000  Level FlightAware
05:20PM 32.5220 -78.3970 194° South 449 517 38,000  Level FlightAware
05:20PM 32.4510 -78.4160 193° South 449 517 38,000  Level FlightAware
05:21PM 32.3820 -78.4360 194° South 449 517 38,000  Level FlightAware
05:22PM 32.3050 -78.4590 194° South 448 516 38,000  Level FlightAware
05:22PM 32.2310 -78.4810 194° South 446 513 38,000  Level FlightAware
05:23PM 32.1510 -78.5020 193° South 446 513 38,000  Level FlightAware
05:24PM 32.0890 -78.5190 193° South 446 513 38,000  Level FlightAware
05:24PM 32.0280 -78.5360 193° South 446 513 38,000  Level FlightAware
05:25PM 31.9660 -78.5530 193° South 446 513 38,000  Level FlightAware
05:25PM 31.9050 -78.5690 193° South 446 513 38,000  Level FlightAware
05:26PM 31.8430 -78.5860 193° South 446 513 38,000  Level FlightAware
05:27PM 31.7820 -78.6030 193° South 446 513 38,000  Level FlightAware
05:27PM 31.7200 -78.6200 193° South 446 513 38,000  Level FlightAware
05:28PM 31.5670 -78.6710 196° South 448 516 38,000  Level FlightAware
05:28PM 31.4970 -78.6900 193° South 448 516 38,000  Level FlightAware
05:29PM 31.4350 -78.7070 193° South 448 516 38,000  Level FlightAware
05:30PM 31.3770 -78.7230 193° South 448 516 38,000  Level FlightAware
05:30PM 31.3150 -78.7400 193° South 448 516 38,000  Level FlightAware
05:31PM 31.2530 -78.7560 192° South 448 516 38,000  Level FlightAware
05:31PM 31.1900 -78.7730 193° South 448 516 38,000  Level FlightAware
05:32PM 31.1260 -78.7910 194° South 448 516 38,000  Level FlightAware
05:33PM 31.0650 -78.8070 193° South 448 516 38,000  Level FlightAware
05:33PM 31.0030 -78.8240 193° South 448 516 38,000  Level FlightAware
05:34PM 30.9410 -78.8410 193° South 448 516 38,000  Level FlightAware
05:34PM 30.8830 -78.8560 193° South 448 516 38,000  Level FlightAware
05:35PM 30.8210 -78.8730 193° South 448 516 38,000  Level FlightAware
05:36PM 30.7570 -78.8900 193° South 448 516 38,000  Level FlightAware
05:36PM 30.6990 -78.9060 193° South 448 516 38,000  Level FlightAware
05:37PM 30.6370 -78.9220 193° South 448 516 38,000  Level FlightAware
05:37PM 30.5740 -78.9390 193° South 448 516 38,000  Level FlightAware
05:38PM 30.3347 -79.0328 193° South 459 528 38,000  Level Miami Center
05:39PM 30.2089 -79.0856 200° South 469 540 38,000  Level Miami Center
05:40PM 30.0869 -79.1358 200° South 469 540 38,000  Level Miami Center
05:41PM 29.9569 -79.1906 200° South 467 537 38,000  Level Miami Center
05:42PM 29.8331 -79.2356 197° South 467 537 38,000  Level Miami Center
05:44PM 29.5897 -79.3328 199° South 468 539 38,000  Level Miami Center
05:45PM 29.4636 -79.3753 196° South 468 539 38,000  Level Miami Center
05:50PM 28.8310 -79.6120 196° South 470 541 38,000  Level FlightAware
05:51PM 28.7490 -79.6420 198° South 470 541 38,000  Level FlightAware
05:51PM 28.6860 -79.6660 198° South 470 541 38,000  Level FlightAware
05:52PM 28.6140 -79.6930 198° South 470 541 38,000  Level FlightAware
05:52PM 28.5420 -79.7190 198° South 471 542 38,000  Level FlightAware
05:53PM 28.4730 -79.7450 198° South 471 542 38,000  Level FlightAware
05:54PM 28.3870 -79.7770 198° South 473 544 38,000  Level FlightAware
05:54PM 28.3030 -79.8080 198° South 471 542 38,000  Level FlightAware
05:55PM 28.2310 -79.8350 198° South 470 541 38,000  Level FlightAware
05:55PM 28.1580 -79.8620 198° South 461 531 38,000  Level FlightAware
05:56PM 28.0950 -79.8860 199° South 461 531 38,000  Level FlightAware
05:57PM 28.0130 -79.9160 198° South 471 542 38,000  Level FlightAware
05:57PM 27.9340 -79.9450 198° South 471 542 38,000  Level FlightAware
05:58PM 27.8580 -79.9730 198° South 471 542 38,000  Level FlightAware
05:58PM 27.7890 -79.9980 198° South 471 542 38,000  Level FlightAware
05:59PM 27.7120 -80.0260 198° South 471 542 38,000  Level FlightAware
06:00PM 27.6400 -80.0530 198° South 472 543 38,000  Level FlightAware
06:00PM 27.5640 -80.0800 197° South 474 545 38,000  Level FlightAware
06:01PM 27.4930 -80.1060 198° South 475 547 38,000  Level FlightAware
06:01PM 27.4180 -80.1340 198° South 476 548 38,000  Level FlightAware
06:02PM 27.3450 -80.1600 198° South 474 545 38,000  Level FlightAware
06:03PM 27.2690 -80.1880 198° South 476 548 38,000  Level FlightAware
06:03PM 27.2000 -80.2130 198° South 475 547 38,000  Level FlightAware
06:04PM 27.1130 -80.2440 198° South 475 547 38,000  Level FlightAware
06:04PM 27.0410 -80.2710 198° South 477 549 38,000  Level FlightAware
06:05PM 26.9610 -80.2990 197° South 470 541 38,000  Level FlightAware
06:06PM 26.8940 -80.3240 198° South 470 541 38,000  Level FlightAware
06:06PM 26.8130 -80.3530 198° South 470 541 38,000  Level FlightAware
06:07PM 26.7400 -80.3790 198° South 470 541 38,000  Level FlightAware
06:07PM 26.6650 -80.4060 198° South 471 542 38,000  Level FlightAware
06:08PM 26.5930 -80.4320 198° South 471 542 38,000  Level FlightAware
06:08PM 26.5180 -80.4590 198° South 471 542 38,000  Level FlightAware
06:09PM 26.4450 -80.4850 198° South 472 543 38,000  Level FlightAware
06:10PM 26.3700 -80.5120 198° South 472 543 38,000  Level FlightAware
06:10PM 26.2980 -80.5370 197° South 471 542 38,000  Level FlightAware
06:11PM 26.2220 -80.5650 198° South 470 541 38,000  Level FlightAware
06:11PM 26.1480 -80.5910 198° South 470 541 38,000  Level FlightAware
06:12PM 26.0830 -80.6140 198° South 476 548 38,000  Level FlightAware
06:13PM 26.0020 -80.6430 198° South 475 547 38,000  Level FlightAware
06:13PM 25.9160 -80.6730 197° South 475 547 38,000  Level FlightAware
06:14PM 25.8450 -80.6980 198° South 474 545 38,000  Level FlightAware
06:14PM 25.7710 -80.7240 198° South 474 545 38,000  Level FlightAware
06:15PM 25.6930 -80.7520 198° South 476 548 38,000  Level FlightAware
06:16PM 25.6200 -80.7780 198° South 476 548 38,000  Level FlightAware
06:16PM 25.5460 -80.8040 198° South 469 540 38,000  Level FlightAware
06:17PM 25.4510 -80.8370 197° South 476 548 38,000  Level FlightAware
06:17PM 25.4100 -80.8550 202° Southwest 469 540 38,000  Level FlightAware
06:18PM 25.3590 -80.8990 218° Southwest 477 549 38,000  Level FlightAware
06:18PM 25.2990 -80.9740 229° Southwest 476 548 38,000  Level FlightAware
06:19PM 25.2480 -81.0350 227° Southwest 477 549 38,000 -180 Level FlightAware
06:20PM 25.1950 -81.0990 228° Southwest 478 550 37,800 -480 Descending FlightAware
06:20PM 25.1360 -81.1710 228° Southwest 480 552 37,400 -660 Descending FlightAware
06:21PM 25.0840 -81.2330 227° Southwest 483 556 37,000 -360 Descending FlightAware
06:21PM 25.0290 -81.3000 228° Southwest 479 551 37,000  Level FlightAware
06:22PM 24.9790 -81.3600 227° Southwest 481 554 37,000 -120 Level FlightAware
06:23PM 24.9250 -81.4250 228° Southwest 481 554 36,900 -600 Descending FlightAware
06:23PM 24.8700 -81.4910 227° Southwest 485 558 36,300 -1,380 Descending FlightAware
06:24PM 24.8160 -81.5550 227° Southwest 483 556 35,300 -1,860 Descending FlightAware
06:24PM 24.7640 -81.6170 227° Southwest 478 550 34,100 -1,980 Descending FlightAware
06:25PM 24.7100 -81.6810 227° Southwest 477 549 33,000 -1,920 Descending FlightAware
06:25PM 24.6580 -81.7430 227° Southwest 464 534 31,900 -1,920 Descending FlightAware
06:26PM 24.6060 -81.8060 228° Southwest 455 524 30,800 -1,920 Descending FlightAware
06:27PM 24.5570 -81.8630 227° Southwest 455 524 29,700 -1,500 Descending FlightAware
06:27PM 24.4980 -81.9270 225° Southwest 433 498 28,900 -1,200 Descending FlightAware
06:28PM 24.4400 -81.9800 220° Southwest 410 472 28,100 -1,440 Descending FlightAware
06:29PM 24.3910 -82.0260 221° Southwest 407 468 27,200 -1,740 Descending FlightAware
06:29PM 24.3730 -82.0450 224° Southwest 404 465 26,800 -2,760 Descending FlightAware
06:29PM 24.3230 -82.1100 230° Southwest 418 481 24,800 -2,400 Descending FlightAware
06:30PM 24.2770 -82.1690 229° Southwest 407 468 23,600 -2,040 Descending FlightAware
06:31PM 24.2250 -82.2350 229° Southwest 404 465 22,200 -1,200 Descending FlightAware
06:31PM 24.1870 -82.2840 230° Southwest 398 458 22,100 -120 Descending FlightAware
06:32PM 24.1510 -82.3310 230° Southwest 398 458 22,100 -1,320 Level FlightAware
06:33PM 24.1010 -82.3910 228° Southwest 375 432 20,500 -1,260 Descending FlightAware
06:33PM 24.0630 -82.4390 229° Southwest 375 432 20,500  Level FlightAware
06:34PM 24.0280 -82.4830 229° Southwest 375 432 20,500  Level FlightAware
06:34PM 23.9930 -82.5280 230° Southwest 375 432 20,500  Level FlightAware
06:35PM 23.9580 -82.5720 229° Southwest 375 432 20,500  Level FlightAware
06:36PM 23.9230 -82.6150 228° Southwest 375 432 20,500  Level FlightAware
06:36PM 23.8870 -82.6600 229° Southwest 375 432 20,500  Level FlightAware
06:40PM 23.5104 -82.5543 172° South  Level Estimated
06:41PM 23.4203 -82.4685 139° Southeast  Level FlightAware Approximate
06:42PM 23.3017 -82.4521 175° South  Level Estimated
06:43PM 23.1830 -82.4358 180° South  Level Estimated
06:44PM 23.0643 -82.4194 180° South  Level Estimated
06:45PM 22.9891 -82.4091 180° South  Level Estimated
06:46PM 22.9891 -82.4091 180° South  Level Estimated
06:47PM 22.9891 -82.4091 180° South  Level Estimated
06:48PM 22.9891 -82.4091 180° South  Level Estimated
06:49PM 22.9891 -82.4091 180° South  Level Estimated
06:50PM 22.9891 -82.4091 180° South  Level Estimated
06:51PM 22.9891 -82.4091 180° South  Level Estimated
06:52PM 22.9891 -82.4091 180° South  Level Estimated
06:53PM 22.9891 -82.4091 180° South  Level Estimated
06:54PM 22.9891 -82.4091 180° South  Level Estimated
06:55PM 22.9891 -82.4091 180° South  Level Estimated
06:56PM 22.9891 -82.4091 180° South  Level Estimated
06:57PM 22.9891 -82.4091 180° South  Level Estimated
06:58PM 22.9891 -82.4091 180° South  Level Estimated
06:59PM 22.9891 -82.4091 180° South  Level Estimated
07:00PM 22.9891 -82.4091 180° South  Level Estimated
07:01PM 22.9891 -82.4091 180° South  Level Estimated
07:02PM 22.9891 -82.4091 180° South  Level Estimated
07:03PM 22.9891 -82.4091 180° South  Level Estimated
07:04PM 22.9891 -82.4091 180° South  Level Estimated
07:05PM 22.9891 -82.4091 180° South  Level Estimated